Time;durP1;ratioP1;P1;durP2;ratioP2;P2;SDS_P1;SDS_P2;PMS_P1;PMS_P2;Temp;Humidity;BMP_temperature;BMP_pressure;BME280_temperature;BME280_humidity;BME280_pressure;Samples;Min_cycle;Max_cycle;Signal;HPM_P1;HPM_P2
2023/02/08 00:00:45;;;;;;;29.40;12.75;;;;;;;-1.03;100.00;103604.44;5060190;28;20448;-70
2023/02/08 00:03:11;;;;;;;25.15;13.60;;;;;;;-1.09;100.00;103598.56;5053743;28;20082;-70
2023/02/08 00:05:37;;;;;;;33.13;14.77;;;;;;;-1.13;100.00;103596.41;5058544;28;20036;-70
2023/02/08 00:08:03;;;;;;;32.30;13.40;;;;;;;-1.00;100.00;103598.66;5060603;28;20069;-69
2023/02/08 00:10:28;;;;;;;22.63;12.75;;;;;;;-1.10;100.00;103594.19;5053163;28;20427;-70
2023/02/08 00:12:54;;;;;;;28.25;13.75;;;;;;;-1.00;100.00;103595.16;5061785;28;20063;-69
2023/02/08 00:15:19;;;;;;;30.17;14.38;;;;;;;-1.06;100.00;103593.75;5073074;28;20029;-70
2023/02/08 00:17:45;;;;;;;24.85;14.15;;;;;;;-1.14;100.00;103591.09;5063431;28;20039;-69
2023/02/08 00:20:11;;;;;;;28.25;13.45;;;;;;;-1.21;100.00;103584.34;5061795;28;20072;-69
2023/02/08 00:22:37;;;;;;;24.77;12.77;;;;;;;-1.25;100.00;103577.94;5054192;28;20054;-70
2023/02/08 00:25:04;;;;;;;24.02;13.27;;;;;;;-1.29;100.00;103583.53;5072005;28;20047;-69
2023/02/08 00:27:30;;;;;;;27.10;12.10;;;;;;;-1.33;100.00;103580.41;5069825;28;20039;-70
2023/02/08 00:29:55;;;;;;;24.75;12.43;;;;;;;-1.38;100.00;103569.59;5069063;28;20020;-70
2023/02/08 00:32:21;;;;;;;37.30;13.25;;;;;;;-1.33;100.00;103573.56;5052270;28;20036;-70
2023/02/08 00:34:46;;;;;;;27.38;12.95;;;;;;;-1.30;100.00;103573.00;5051750;28;20021;-70
2023/02/08 00:37:11;;;;;;;28.83;13.18;;;;;;;-1.28;100.00;103566.34;5053540;28;20082;-70
2023/02/08 00:39:37;;;;;;;30.80;14.30;;;;;;;-1.25;100.00;103566.66;5051859;28;20377;-70
2023/02/08 00:42:02;;;;;;;24.70;14.05;;;;;;;-1.23;100.00;103562.59;5052917;28;20028;-70
2023/02/08 00:44:28;;;;;;;28.67;13.30;;;;;;;-1.21;100.00;103566.25;5070839;28;20016;-69
2023/02/08 00:46:53;;;;;;;24.42;12.80;;;;;;;-1.21;100.00;103569.78;5069786;28;20111;-70
2023/02/08 00:49:19;;;;;;;28.40;13.45;;;;;;;-1.15;100.00;103573.75;5065054;28;20033;-70
2023/02/08 00:51:44;;;;;;;30.48;12.82;;;;;;;-1.13;100.00;103567.09;5053034;28;20030;-69
2023/02/08 00:54:13;;;;;;;24.80;13.30;;;;;;;-1.18;100.00;103558.84;5054939;28;20024;-69
2023/02/08 00:56:38;;;;;;;27.48;13.43;;;;;;;-1.16;100.00;103562.50;5066617;28;20048;-70
2023/02/08 00:59:03;;;;;;;31.30;13.27;;;;;;;-1.21;100.00;103563.66;5053137;28;20694;-71
2023/02/08 01:01:28;;;;;;;25.00;12.48;;;;;;;-1.21;100.00;103572.34;5052799;28;20373;-70
2023/02/08 01:03:54;;;;;;;26.48;13.13;;;;;;;-1.25;100.00;103571.84;5052837;28;20457;-70
2023/02/08 01:06:20;;;;;;;25.00;13.20;;;;;;;-1.21;100.00;103569.78;5052850;28;20083;-70
2023/02/08 01:08:45;;;;;;;22.00;12.20;;;;;;;-1.19;100.00;103568.25;5049892;28;20075;-71
2023/02/08 01:11:21;;;;;;;28.48;13.13;;;;;;;-1.18;100.00;103569.19;5052865;28;20368;-70
2023/02/08 01:13:47;;;;;;;23.92;12.68;;;;;;;-1.09;100.00;103575.31;5065490;28;20127;-70
2023/02/08 01:16:22;;;;;;;26.35;12.43;;;;;;;-1.06;100.00;103583.44;5071418;28;20096;-71
2023/02/08 01:18:51;;;;;;;24.55;12.73;;;;;;;-1.10;100.00;103573.50;5036127;28;20368;-71
2023/02/08 01:21:20;;;;;;;23.38;12.10;;;;;;;-1.20;100.00;103581.00;5052538;28;20025;-70
2023/02/08 01:23:46;;;;;;;26.25;12.35;;;;;;;-1.24;100.00;103569.41;5056663;28;20024;-70
2023/02/08 01:26:12;;;;;;;22.40;13.20;;;;;;;-1.28;100.00;103567.25;5070180;28;20082;-70
2023/02/08 01:28:39;;;;;;;30.08;12.43;;;;;;;-1.29;100.00;103564.50;5051559;28;20087;-71
2023/02/08 01:31:09;;;;;;;26.35;12.65;;;;;;;-1.27;100.00;103569.09;5049068;28;20029;-70
2023/02/08 01:33:35;;;;;;;28.48;13.30;;;;;;;-1.30;100.00;103567.81;5052090;28;20028;-71
2023/02/08 01:36:00;;;;;;;27.42;12.68;;;;;;;-1.30;100.00;103573.94;5056721;28;20055;-70
2023/02/08 01:38:26;;;;;;;24.80;12.75;;;;;;;-1.20;100.00;103570.66;5068927;28;20032;-69
2023/02/08 01:40:51;;;;;;;24.38;13.02;;;;;;;-1.21;100.00;103566.25;5063148;28;20116;-70
2023/02/08 01:43:25;;;;;;;25.80;13.75;;;;;;;-1.23;100.00;103560.91;5049605;28;20512;-70
2023/02/08 01:45:51;;;;;;;21.13;11.27;;;;;;;-1.27;100.00;103568.19;5051840;28;20021;-70
2023/02/08 01:48:32;;;;;;;25.38;12.30;;;;;;;-1.24;100.00;103565.94;5051853;28;20032;-70
2023/02/08 01:51:04;;;;;;;24.15;12.60;;;;;;;-1.26;100.00;103564.81;5051273;28;20358;-71
2023/02/08 01:53:31;;;;;;;25.77;12.38;;;;;;;-1.39;100.00;103562.59;5049970;28;20031;-70
2023/02/08 01:56:01;;;;;;;25.55;13.48;;;;;;;-1.48;100.00;103559.00;5056501;28;20500;-71
2023/02/08 01:58:31;;;;;;;27.42;13.13;;;;;;;-1.55;100.00;103557.41;5063719;28;20023;-70
2023/02/08 02:00:56;;;;;;;22.15;12.15;;;;;;;-1.65;100.00;103563.25;5062487;28;20485;-70
2023/02/08 02:03:23;;;;;;;27.95;12.02;;;;;;;-1.64;100.00;103559.91;5055629;28;20049;-69
2023/02/08 02:05:59;;;;;;;20.17;12.32;;;;;;;-1.66;100.00;103553.66;5051759;28;20422;-69
2023/02/08 02:08:24;;;;;;;19.77;11.60;;;;;;;-1.69;100.00;103550.75;5056566;28;20052;-70
2023/02/08 02:10:50;;;;;;;28.38;13.75;;;;;;;-1.60;100.00;103555.97;5073410;28;20492;-71
2023/02/08 02:13:21;;;;;;;27.02;12.57;;;;;;;-1.65;100.00;103552.00;5070269;28;20099;-72
2023/02/08 02:15:48;;;;;;;24.23;12.00;;;;;;;-1.71;100.00;103553.16;5073529;28;20033;-70
2023/02/08 02:18:24;;;;;;;21.90;11.65;;;;;;;-1.68;100.00;103543.91;5052658;28;20147;-71
2023/02/08 02:21:15;;;;;;;32.92;13.48;;;;;;;-1.57;100.00;103548.59;5041273;28;20027;-70
2023/02/08 02:24:11;;;;;;;29.42;13.68;;;;;;;-1.67;100.00;103551.81;5054915;28;20067;-72
2023/02/08 02:26:46;;;;;;;23.80;11.82;;;;;;;-1.70;100.00;103543.75;5062451;28;20020;-70
2023/02/08 02:29:30;;;;;;;23.60;12.65;;;;;;;-1.66;100.00;103542.41;5054200;28;20079;-71
2023/02/08 02:32:14;;;;;;;23.08;11.20;;;;;;;-1.66;100.00;103539.84;5063534;28;20082;-69
2023/02/08 02:34:43;;;;;;;;;;;;;;;-1.68;100.00;103544.84;5074482;28;20055;-68
2023/02/08 02:37:48;;;;;;;22.17;10.57;;;;;;;-1.77;100.00;103536.06;5070254;28;19912;-72
2023/02/08 02:40:52;;;;;;;24.13;12.55;;;;;;;-1.77;100.00;103539.56;5039317;28;20044;-71
2023/02/08 02:43:40;;;;;;;23.85;11.88;;;;;;;-1.81;100.00;103539.06;5062731;28;20064;-70
2023/02/08 02:46:28;;;;;;;23.75;11.82;;;;;;;-1.72;100.00;103546.16;5054664;28;20544;-70
2023/02/08 02:48:59;;;;;;;26.90;11.48;;;;;;;-1.82;100.00;103543.28;5058673;28;20043;-70
2023/02/08 02:51:30;;;;;;;24.83;12.10;;;;;;;-1.88;100.00;103538.38;5054922;28;20104;-69
2023/02/08 02:54:07;;;;;;;22.38;11.77;;;;;;;-1.91;100.00;103540.63;5053425;28;20037;-71
2023/02/08 02:56:41;;;;;;;22.77;11.02;;;;;;;-1.92;100.00;103530.13;5058386;28;20017;-70
2023/02/08 02:59:09;;;;;;;23.02;12.50;;;;;;;-1.89;100.00;103530.47;5054757;28;20465;-71
2023/02/08 03:01:36;;;;;;;18.85;10.63;;;;;;;-1.97;100.00;103539.03;5051281;28;20025;-70
2023/02/08 03:04:13;;;;;;;25.52;11.35;;;;;;;-1.97;100.00;103532.19;5053252;28;20496;-70
2023/02/08 03:07:00;;;;;;;25.25;11.75;;;;;;;-1.98;100.00;103534.59;5050780;28;20473;-71
2023/02/08 03:09:59;;;;;;;24.10;11.98;;;;;;;-1.99;100.00;103532.75;5054243;28;20045;-69
2023/02/08 03:12:41;;;;;;;22.67;12.50;;;;;;;-2.06;100.00;103526.94;5060762;28;20033;-69
2023/02/08 03:15:22;;;;;;;26.45;12.52;;;;;;;-1.98;100.00;103519.13;5074305;28;20035;-70
2023/02/08 03:18:34;;;;;;;22.00;12.00;;;;;;;-2.04;100.00;103521.94;5055744;28;20283;-70
2023/02/08 03:21:17;;;;;;;23.50;12.10;;;;;;;-2.04;100.00;103520.28;5010114;28;20102;-70
2023/02/08 03:23:46;;;;;;;20.10;12.38;;;;;;;-1.98;100.00;103521.72;5060539;28;20487;-69
2023/02/08 03:26:29;;;;;;;19.38;12.32;;;;;;;-2.04;100.00;103524.53;5064439;28;20037;-71
2023/02/08 03:29:03;;;;;;;24.37;11.63;;;;;;;-2.11;100.00;103519.44;5067796;28;20032;-69
2023/02/08 03:31:28;;;;;;;25.30;12.23;;;;;;;-2.16;100.00;103508.59;5049446;28;20028;-70
2023/02/08 03:34:12;;;;;;;25.77;12.23;;;;;;;-2.10;100.00;103503.22;5053490;28;20035;-70
2023/02/08 03:36:47;;;;;;;;;;;;;;;-2.15;100.00;103504.38;5054038;28;20035;-70
2023/02/08 03:39:18;;;;;;;31.35;12.75;;;;;;;-2.20;100.00;103501.25;5052970;28;19916;-70
2023/02/08 03:41:46;;;;;;;25.38;11.70;;;;;;;-2.13;100.00;103498.63;5059856;28;20460;-70
2023/02/08 03:44:33;;;;;;;24.85;12.40;;;;;;;-2.08;100.00;103505.19;5052589;28;20112;-70
2023/02/08 03:47:20;;;;;;;23.88;12.07;;;;;;;-2.07;100.00;103506.13;5052463;28;20025;-69
2023/02/08 03:49:51;;;;;;;22.55;13.07;;;;;;;-2.13;100.00;103505.44;5062745;28;20039;-71
2023/02/08 03:52:17;;;;;;;25.70;13.48;;;;;;;-2.21;100.00;103505.53;5055470;28;20032;-68
2023/02/08 03:54:50;;;;;;;18.75;11.30;;;;;;;-2.23;100.00;103506.09;5053491;28;20679;-70
2023/02/08 03:57:31;;;;;;;22.92;11.88;;;;;;;-2.28;100.00;103503.00;5053690;28;20508;-69
2023/02/08 04:00:01;;;;;;;22.40;13.02;;;;;;;-2.27;100.00;103503.91;5065866;28;20056;-70
2023/02/08 04:02:31;;;;;;;24.02;13.15;;;;;;;-2.17;100.00;103516.16;5066123;28;20384;-71
2023/02/08 04:04:58;;;;;;;25.58;12.77;;;;;;;-2.19;100.00;103507.38;5051526;28;20392;-70
2023/02/08 04:07:23;;;;;;;22.05;11.02;;;;;;;-2.25;100.00;103508.50;5056494;28;20104;-70
2023/02/08 04:09:49;;;;;;;25.15;11.85;;;;;;;-2.26;100.00;103516.97;5068370;28;20415;-71
2023/02/08 04:12:14;;;;;;;26.48;12.57;;;;;;;-2.32;100.00;103520.53;5050493;28;20026;-70
2023/02/08 04:14:40;;;;;;;22.00;11.45;;;;;;;-2.38;100.00;103513.94;5070869;28;20028;-69
2023/02/08 04:17:05;;;;;;;22.50;12.02;;;;;;;-2.33;100.00;103513.53;5073099;28;20024;-70
2023/02/08 04:19:31;;;;;;;24.42;12.02;;;;;;;-2.28;100.00;103510.75;5071792;28;20423;-71
2023/02/08 04:21:56;;;;;;;22.42;12.38;;;;;;;-2.33;100.00;103514.47;5053120;28;20029;-70
2023/02/08 04:24:22;;;;;;;26.27;12.27;;;;;;;-2.36;100.00;103511.56;5052942;28;20036;-70
2023/02/08 04:26:47;;;;;;;23.20;13.00;;;;;;;-2.43;100.00;103507.38;5050939;28;20384;-70
2023/02/08 04:29:12;;;;;;;22.30;13.20;;;;;;;-2.46;100.00;103504.44;5067730;28;20151;-71
2023/02/08 04:31:38;;;;;;;30.52;12.85;;;;;;;-2.49;100.00;103501.50;5068474;28;20120;-70
2023/02/08 04:34:03;;;;;;;25.40;12.23;;;;;;;-2.53;100.00;103499.34;5053949;28;20037;-70
2023/02/08 04:36:29;;;;;;;23.63;13.15;;;;;;;-2.51;100.00;103505.56;5052873;28;20407;-69
2023/02/08 04:38:54;;;;;;;23.15;12.00;;;;;;;-2.49;100.00;103506.66;5053808;28;20025;-69
2023/02/08 04:41:20;;;;;;;27.00;11.68;;;;;;;-2.50;100.00;103503.91;5052517;28;20021;-70
2023/02/08 04:43:45;;;;;;;26.90;11.73;;;;;;;-2.42;100.00;103500.53;5063699;28;20448;-69
2023/02/08 04:46:10;;;;;;;25.50;13.07;;;;;;;-2.49;100.00;103496.34;5057857;28;20060;-69
2023/02/08 04:48:36;;;;;;;23.38;12.90;;;;;;;-2.50;100.00;103498.75;5052502;28;20074;-69
2023/02/08 04:51:01;;;;;;;25.33;12.48;;;;;;;-2.59;100.00;103493.47;5050640;28;20029;-71
2023/02/08 04:53:27;;;;;;;22.80;12.80;;;;;;;-2.63;100.00;103492.22;5052325;28;20071;-69
2023/02/08 04:55:52;;;;;;;27.40;14.90;;;;;;;-2.57;100.00;103481.69;5058376;28;20037;-70
2023/02/08 04:58:18;;;;;;;23.60;12.07;;;;;;;-2.59;100.00;103478.00;5068607;28;20028;-70
2023/02/08 05:00:44;;;;;;;28.55;12.32;;;;;;;-2.52;100.00;103472.81;5050706;28;20052;-69
2023/02/08 05:03:09;;;;;;;26.33;13.48;;;;;;;-2.56;100.00;103468.97;5061560;28;20481;-69
2023/02/08 05:05:35;;;;;;;23.80;12.23;;;;;;;-2.52;100.00;103470.25;5057130;28;20024;-69
2023/02/08 05:08:01;;;;;;;23.63;12.85;;;;;;;-2.50;100.00;103472.97;5072015;28;20055;-69
2023/02/08 05:10:26;;;;;;;24.85;14.02;;;;;;;-2.49;100.00;103467.09;5061172;28;20033;-69
2023/02/08 05:12:52;;;;;;;28.58;15.00;;;;;;;-2.50;100.00;103466.16;5051918;28;20382;-70
2023/02/08 05:15:17;;;;;;;28.48;12.65;;;;;;;-2.41;100.00;103469.78;5051251;28;20069;-69
2023/02/08 05:17:43;;;;;;;28.27;13.60;;;;;;;-2.39;100.00;103472.50;5052255;28;20013;-69
2023/02/08 05:20:09;;;;;;;28.95;14.15;;;;;;;-2.42;100.00;103478.25;5056323;28;20500;-69
2023/02/08 05:22:35;;;;;;;27.55;14.02;;;;;;;-2.44;100.00;103478.81;5055795;28;20508;-69
2023/02/08 05:25:00;;;;;;;22.05;12.63;;;;;;;-2.45;100.00;103483.06;5051068;28;20028;-69
2023/02/08 05:27:26;;;;;;;26.52;12.43;;;;;;;-2.41;100.00;103489.50;5052072;28;20029;-70
2023/02/08 05:29:52;;;;;;;22.15;13.13;;;;;;;-2.44;100.00;103479.75;5051143;28;20031;-69
2023/02/08 05:32:18;;;;;;;26.65;14.23;;;;;;;-2.51;100.00;103487.53;5057017;28;20024;-69
2023/02/08 05:34:43;;;;;;;26.55;14.07;;;;;;;-2.54;100.00;103482.03;5067870;28;20490;-71
2023/02/08 05:37:09;;;;;;;24.30;13.10;;;;;;;-2.57;100.00;103476.53;5066408;28;20098;-70
2023/02/08 05:39:34;;;;;;;26.85;13.73;;;;;;;-2.53;100.00;103476.13;5057582;28;20407;-70
2023/02/08 05:42:00;;;;;;;23.10;12.82;;;;;;;-2.46;100.00;103472.59;5058448;28;20037;-69
2023/02/08 05:44:25;;;;;;;25.58;13.68;;;;;;;-2.48;100.00;103467.25;5054206;28;20048;-70
2023/02/08 05:46:50;;;;;;;22.63;12.55;;;;;;;-2.60;100.00;103461.63;5057292;28;20304;-68
2023/02/08 05:49:16;;;;;;;36.10;15.90;;;;;;;-2.65;100.00;103459.28;5060751;28;20074;-70
2023/02/08 05:51:41;;;;;;;27.08;15.18;;;;;;;-2.61;100.00;103453.75;5061851;28;20151;-68
2023/02/08 05:54:07;;;;;;;24.92;14.13;;;;;;;-2.65;100.00;103459.28;5063183;28;20031;-71
2023/02/08 05:56:33;;;;;;;22.77;13.48;;;;;;;-2.65;100.00;103457.63;5061179;28;20067;-70
2023/02/08 05:59:00;;;;;;;28.20;14.35;;;;;;;-2.64;100.00;103455.97;5064305;28;20017;-69
2023/02/08 06:01:26;;;;;;;27.38;14.13;;;;;;;-2.59;100.00;103462.53;5053277;28;20120;-70
2023/02/08 06:03:51;;;;;;;24.45;13.10;;;;;;;-2.56;100.00;103456.09;5061948;28;20456;-70
2023/02/08 06:06:17;;;;;;;24.60;12.85;;;;;;;-2.67;100.00;103453.97;5080732;28;20033;-69
2023/02/08 06:08:42;;;;;;;26.13;12.63;;;;;;;-2.73;100.00;103454.22;5067993;28;20140;-68
2023/02/08 06:11:07;;;;;;;26.50;13.65;;;;;;;-2.82;100.00;103463.47;5054187;28;20076;-69
2023/02/08 06:13:33;;;;;;;28.20;13.07;;;;;;;-2.83;100.00;103455.56;5055723;28;20024;-69
2023/02/08 06:15:58;;;;;;;24.38;12.57;;;;;;;-2.89;100.00;103461.84;5057306;28;20233;-68
2023/02/08 06:18:23;;;;;;;25.15;13.60;;;;;;;-2.80;100.00;103456.81;5054101;28;20029;-69
2023/02/08 06:20:53;;;;;;;24.02;12.80;;;;;;;-2.75;100.00;103455.69;5053403;28;20126;-69
2023/02/08 06:23:19;;;;;;;40.83;14.55;;;;;;;-2.78;100.00;103454.41;5061514;28;20025;-69
2023/02/08 06:25:44;;;;;;;28.25;13.98;;;;;;;-2.75;100.00;103457.34;5058230;28;20036;-67
2023/02/08 06:28:09;;;;;;;31.58;13.50;;;;;;;-2.78;100.00;103456.97;5058138;28;20051;-68
2023/02/08 06:30:36;;;;;;;36.30;14.48;;;;;;;-2.70;100.00;103463.91;5057374;28;20033;-69
2023/02/08 06:33:02;;;;;;;31.50;13.68;;;;;;;-2.77;100.00;103477.81;5074863;28;20060;-71
2023/02/08 06:35:27;;;;;;;27.55;14.25;;;;;;;-2.78;100.00;103482.75;5078568;28;20043;-72
2023/02/08 06:37:53;;;;;;;24.10;11.82;;;;;;;-2.78;100.00;103480.16;5075354;28;20024;-71
2023/02/08 06:40:18;;;;;;;24.10;11.85;;;;;;;-2.83;100.00;103481.34;5055893;28;20033;-72
2023/02/08 06:42:45;;;;;;;30.52;12.20;;;;;;;-2.89;100.00;103471.22;5048006;28;20025;-70
2023/02/08 06:45:11;;;;;;;24.58;12.48;;;;;;;-2.86;100.00;103461.28;5054758;28;21215;-69
2023/02/08 06:47:36;;;;;;;23.40;13.95;;;;;;;-2.81;100.00;103464.38;5052923;28;20465;-70
2023/02/08 06:50:02;;;;;;;37.13;12.63;;;;;;;-2.83;100.00;103461.63;5044423;28;20118;-69
2023/02/08 06:52:27;;;;;;;24.48;12.75;;;;;;;-2.86;100.00;103461.28;5051271;28;20588;-69
2023/02/08 06:54:52;;;;;;;25.65;12.55;;;;;;;-2.84;100.00;103454.63;5048687;28;20051;-70
2023/02/08 06:57:17;;;;;;;27.95;12.05;;;;;;;-2.83;100.00;103459.06;5049678;28;20044;-69
2023/02/08 06:59:43;;;;;;;22.00;11.95;;;;;;;-2.79;100.00;103458.66;5051444;28;20021;-70
2023/02/08 07:02:12;;;;;;;25.33;12.57;;;;;;;-2.77;100.00;103459.75;5050210;28;20400;-68
2023/02/08 07:04:37;;;;;;;24.20;12.55;;;;;;;-2.71;100.00;103459.53;5053556;28;20524;-69
2023/02/08 07:07:03;;;;;;;25.80;12.15;;;;;;;-2.68;100.00;103462.44;5053671;28;20048;-69
2023/02/08 07:09:28;;;;;;;29.45;12.52;;;;;;;-2.63;100.00;103470.69;5051329;28;20049;-70
2023/02/08 07:11:53;;;;;;;23.10;12.50;;;;;;;-2.62;100.00;103459.63;5065168;28;20028;-68
2023/02/08 07:14:18;;;;;;;26.30;12.63;;;;;;;-2.63;100.00;103463.88;5054629;28;20032;-69
2023/02/08 07:16:44;;;;;;;27.20;12.70;;;;;;;-2.60;100.00;103471.03;5052124;28;20020;-69
2023/02/08 07:19:09;;;;;;;20.13;11.95;;;;;;;-2.56;100.00;103465.50;5054024;28;20461;-68
2023/02/08 07:21:34;;;;;;;22.80;12.65;;;;;;;-2.54;100.00;103466.56;5053830;28;20025;-67
2023/02/08 07:24:00;;;;;;;21.75;11.75;;;;;;;-2.53;100.00;103463.25;5052111;28;20036;-69
2023/02/08 07:26:25;;;;;;;19.60;11.93;;;;;;;-2.50;100.00;103462.69;5054748;28;20376;-69
2023/02/08 07:28:50;;;;;;;24.08;12.75;;;;;;;-2.46;100.00;103459.69;5053875;28;20033;-69
2023/02/08 07:31:16;;;;;;;25.33;12.75;;;;;;;-2.46;100.00;103459.69;5051885;28;20028;-72
2023/02/08 07:33:43;;;;;;;18.42;11.20;;;;;;;-2.47;100.00;103463.94;5052119;28;20029;-69
2023/02/08 07:36:09;;;;;;;25.58;13.10;;;;;;;-2.46;100.00;103459.69;5051769;28;20468;-69
2023/02/08 07:38:35;;;;;;;23.30;11.82;;;;;;;-2.49;100.00;103460.25;5050700;28;20021;-70
2023/02/08 07:41:12;;;;;;;23.40;12.20;;;;;;;-2.44;100.00;103464.28;5060176;28;20104;-71
2023/02/08 07:43:39;;;;;;;20.90;12.23;;;;;;;-2.44;100.00;103456.53;5069966;28;20442;-69
2023/02/08 07:46:10;;;;;;;31.77;12.00;;;;;;;-2.37;100.00;103455.56;5049619;28;20401;-70
2023/02/08 07:48:35;;;;;;;22.70;11.77;;;;;;;-2.39;100.00;103457.97;5053471;28;20102;-69
2023/02/08 07:51:01;;;;;;;23.67;12.15;;;;;;;-2.35;100.00;103454.06;5053752;28;20021;-68
2023/02/08 07:53:27;;;;;;;24.45;12.32;;;;;;;-2.32;100.00;103451.84;5053446;28;20029;-68
2023/02/08 07:55:52;;;;;;;26.17;12.20;;;;;;;-2.30;100.00;103457.16;5053181;28;20027;-69
2023/02/08 07:58:17;;;;;;;23.70;12.77;;;;;;;-2.25;100.00;103445.66;5052681;28;20173;-69
2023/02/08 08:00:43;;;;;;;29.95;11.55;;;;;;;-2.22;100.00;103448.63;5052259;28;20067;-70
2023/02/08 08:03:08;;;;;;;23.80;12.38;;;;;;;-2.18;100.00;103449.84;5053224;28;20111;-70
2023/02/08 08:05:33;;;;;;;20.38;11.00;;;;;;;-2.16;100.00;103449.28;5053071;28;20032;-70
2023/02/08 08:07:59;;;;;;;18.60;11.23;;;;;;;-2.13;100.00;103449.63;5053376;28;20045;-69
2023/02/08 08:10:24;;;;;;;22.27;11.38;;;;;;;-2.10;100.00;103451.63;5053059;28;20025;-67
2023/02/08 08:12:49;;;;;;;26.55;13.10;;;;;;;-2.09;100.00;103449.22;5063339;28;20044;-68
2023/02/08 08:15:15;;;;;;;20.70;11.02;;;;;;;-2.12;100.00;103447.94;5053512;28;20104;-69
2023/02/08 08:17:41;;;;;;;22.90;13.18;;;;;;;-2.07;100.00;103446.81;5052375;28;20048;-69
2023/02/08 08:20:08;;;;;;;19.58;11.73;;;;;;;-2.03;100.00;103455.03;5053265;28;20024;-69
2023/02/08 08:22:33;;;;;;;19.80;11.02;;;;;;;-2.01;100.00;103452.63;5051780;28;20044;-69
2023/02/08 08:24:59;;;;;;;25.10;13.05;;;;;;;-1.96;100.00;103447.97;5052968;28;20033;-70
2023/02/08 08:27:24;;;;;;;21.30;12.27;;;;;;;-1.93;100.00;103450.88;5052400;28;20032;-68
2023/02/08 08:29:50;;;;;;;21.17;11.85;;;;;;;-1.86;100.00;103453.38;5052925;28;20026;-69
2023/02/08 08:32:15;;;;;;;25.90;11.98;;;;;;;-1.86;100.00;103461.13;5052349;28;20036;-68
2023/02/08 08:34:40;;;;;;;24.30;11.80;;;;;;;-1.82;100.00;103452.06;5049314;28;20016;-69
2023/02/08 08:37:06;;;;;;;24.83;12.57;;;;;;;-1.80;100.00;103454.06;5045806;28;21259;-71
2023/02/08 08:39:31;;;;;;;20.00;11.25;;;;;;;-1.76;100.00;103451.06;5048410;28;20036;-69
2023/02/08 08:41:58;;;;;;;24.45;12.25;;;;;;;-1.73;100.00;103450.47;5048326;28;20021;-70
2023/02/08 08:44:24;;;;;;;22.33;12.27;;;;;;;-1.71;100.00;103436.06;5051177;28;20040;-70
2023/02/08 08:46:54;;;;;;;23.40;13.40;;;;;;;-1.66;100.00;103439.16;5053829;28;20025;-69
2023/02/08 08:49:19;;;;;;;23.65;12.45;;;;;;;-1.58;100.00;103441.78;5051795;28;20036;-68
2023/02/08 08:51:44;;;;;;;25.27;12.77;;;;;;;-1.53;100.00;103439.72;5050896;28;20021;-68
2023/02/08 08:54:10;;;;;;;30.67;12.57;;;;;;;-1.47;100.00;103439.47;5052532;28;20489;-69
2023/02/08 08:56:35;;;;;;;27.67;13.65;;;;;;;-1.40;100.00;103441.94;5051662;28;20100;-68
2023/02/08 08:59:00;;;;;;;26.38;13.40;;;;;;;-1.35;100.00;103430.44;5063538;28;20064;-69
2023/02/08 09:01:26;;;;;;;25.40;12.95;;;;;;;-1.28;100.00;103430.34;5052776;28;20036;-69
2023/02/08 09:03:51;;;;;;;28.08;14.70;;;;;;;-1.20;100.00;103431.16;5049940;28;20032;-69
2023/02/08 09:06:17;;;;;;;26.02;12.85;;;;;;;-1.11;100.00;103439.91;5045713;28;20091;-69
2023/02/08 09:08:42;;;;;;;24.05;12.48;;;;;;;-0.98;100.00;103442.09;5051936;28;20190;-69
2023/02/08 09:11:11;;;;;;;26.30;11.38;;;;;;;-0.84;100.00;103446.16;5050630;28;20060;-70
2023/02/08 09:13:36;;;;;;;26.73;13.32;;;;;;;-0.80;100.00;103443.13;5051306;28;20394;-69
2023/02/08 09:16:12;;;;;;;25.30;13.13;;;;;;;-0.59;100.00;103446.13;5044929;28;20036;-69
2023/02/08 09:18:38;;;;;;;26.30;13.38;;;;;;;-0.41;100.00;103442.81;5049183;28;20041;-71
2023/02/08 09:21:19;;;;;;;22.35;12.52;;;;;;;-0.03;100.00;103443.28;5046743;28;20025;-69
2023/02/08 09:23:47;;;;;;;29.25;13.70;;;;;;;0.38;100.00;103447.28;5040066;28;20052;-69
2023/02/08 09:26:15;;;;;;;23.38;13.57;;;;;;;0.81;100.00;103442.09;5040758;28;20057;-70
2023/02/08 09:28:41;;;;;;;24.38;13.18;;;;;;;1.13;100.00;103448.59;5048991;28;20041;-70
2023/02/08 09:31:08;;;;;;;23.17;11.93;;;;;;;1.37;100.00;103444.88;5045462;28;20035;-70
2023/02/08 09:33:33;;;;;;;21.30;12.45;;;;;;;1.63;100.00;103455.13;5053288;28;20033;-69
2023/02/08 09:35:58;;;;;;;21.80;11.93;;;;;;;1.76;100.00;103454.59;5047659;28;20028;-70
2023/02/08 09:38:23;;;;;;;19.05;11.65;;;;;;;1.95;100.00;103457.25;5041273;28;20117;-70
2023/02/08 09:40:59;;;;;;;20.30;11.30;;;;;;;2.29;100.00;103462.09;5044337;28;20025;-69
2023/02/08 09:43:42;;;;;;;22.83;11.77;;;;;;;2.40;100.00;103464.00;5045734;28;20487;-70
2023/02/08 09:46:15;;;;;;;21.23;11.82;;;;;;;2.51;100.00;103467.59;5039845;28;20025;-69
2023/02/08 09:48:41;;;;;;;;;;;;;;;2.70;100.00;103450.28;5051922;28;20095;-70
2023/02/08 09:51:20;;;;;;;22.67;12.93;;;;;;;2.93;99.82;103448.88;5051156;28;19921;-69
2023/02/08 09:53:51;;;;;;;21.83;11.88;;;;;;;3.06;98.67;103455.16;5051011;28;20029;-71
2023/02/08 09:56:28;;;;;;;20.88;11.93;;;;;;;3.24;97.75;103451.56;5046047;28;20043;-73
2023/02/08 09:58:54;;;;;;;20.25;12.88;;;;;;;3.46;96.04;103444.00;5046806;28;20483;-72
2023/02/08 10:01:22;;;;;;;28.15;12.02;;;;;;;3.46;94.87;103448.25;5035157;28;20017;-71
2023/02/08 10:03:50;;;;;;;24.55;13.18;;;;;;;3.60;94.32;103437.38;5052080;28;20020;-72
2023/02/08 10:06:19;;;;;;;23.95;12.63;;;;;;;3.47;92.49;103439.69;5043141;28;20060;-71
2023/02/08 10:08:48;;;;;;;25.90;12.93;;;;;;;3.46;93.79;103448.25;5045763;28;20068;-71
2023/02/08 10:11:37;;;;;;;20.02;11.93;;;;;;;3.67;93.66;103450.13;5042156;28;20440;-71
2023/02/08 10:14:30;;;;;;;25.02;12.57;;;;;;;3.74;91.06;103466.31;5031676;28;20450;-71
2023/02/08 10:17:24;;;;;;;23.05;12.23;;;;;;;3.88;90.15;103464.13;5031307;28;20036;-71
2023/02/08 10:20:20;;;;;;;19.25;12.00;;;;;;;4.16;90.24;103469.06;5039777;28;20148;-70
2023/02/08 10:23:04;;;;;;;22.75;11.50;;;;;;;4.16;89.39;103471.69;5035924;28;20033;-70
2023/02/08 10:25:44;;;;;;;20.80;11.95;;;;;;;4.48;89.17;103470.00;5070497;28;20016;-69
2023/02/08 10:28:22;;;;;;;22.85;13.05;;;;;;;4.55;90.88;103474.94;5074394;28;20040;-70
2023/02/08 10:30:51;;;;;;;20.63;13.13;;;;;;;4.80;85.16;103464.84;5055911;28;20104;-71
2023/02/08 10:33:28;;;;;;;24.38;13.65;;;;;;;4.57;84.42;103460.31;5075137;28;20073;-70
2023/02/08 10:35:54;;;;;;;25.45;12.52;;;;;;;5.12;81.18;103465.66;5075156;28;20029;-69
2023/02/08 10:38:20;;;;;;;20.30;12.52;;;;;;;5.43;76.50;103457.69;5073052;28;20039;-70
2023/02/08 10:40:58;;;;;;;21.08;12.82;;;;;;;5.86;76.04;103456.75;5074834;28;20021;-71
2023/02/08 10:43:34;;;;;;;18.67;11.35;;;;;;;6.06;72.09;103462.66;5035146;28;20424;-68
2023/02/08 10:46:29;;;;;;;23.08;12.80;;;;;;;6.20;72.58;103459.41;5052424;28;20166;-70
2023/02/08 10:49:15;;;;;;;21.35;12.95;;;;;;;6.27;75.78;103459.84;5052447;28;20489;-70
2023/02/08 10:51:41;;;;;;;18.45;11.98;;;;;;;6.73;67.47;103453.78;5054799;28;20063;-70
2023/02/08 10:54:12;;;;;;;19.80;12.43;;;;;;;6.40;68.67;103453.09;5055455;28;20021;-70
2023/02/08 10:56:59;;;;;;;20.15;11.60;;;;;;;6.53;75.14;103448.78;5047621;28;20515;-70
2023/02/08 10:59:31;;;;;;;22.55;11.50;;;;;;;7.32;64.32;103437.09;5052786;28;20033;-69
2023/02/08 11:01:57;;;;;;;15.63;11.23;;;;;;;7.80;60.11;103436.94;5050179;28;20460;-70
2023/02/08 11:04:23;;;;;;;16.88;12.00;;;;;;;7.95;59.43;103438.00;5048275;28;20021;-71
2023/02/08 11:06:50;;;;;;;20.17;11.85;;;;;;;7.62;62.21;103441.78;5046014;28;20025;-69
2023/02/08 11:09:33;;;;;;;21.20;12.38;;;;;;;8.13;61.65;103437.47;5052648;28;20084;-70
2023/02/08 11:12:00;;;;;;;20.90;12.75;;;;;;;8.31;57.90;103437.78;5051006;28;20060;-71
2023/02/08 11:14:36;;;;;;;20.40;12.27;;;;;;;8.30;57.23;103431.63;5036786;28;20029;-69